This is the latest recevied weather packets stored in our database for station/object SP9KB-13. If no packets are shown the sender has not sent any weather packets the latest 1 day(s).
| Time | Temp. | Humidity | Pressure | Rain* | Wind** | Luminosity | Snow |
|---|---|---|---|---|---|---|---|
| 1778066947 | 23.33° C | 36% | 991.2 hPa | 0 mm | - | - | - |
| 1778066346 | 23.89° C | 38% | 990.9 hPa | 0 mm | - | - | - |
| 1778066045 | 23.33° C | 38% | 991 hPa | 0 mm | - | - | - |
| 1778065444 | 24.44° C | 38% | 990.8 hPa | 0 mm | - | - | - |
| 1778064542 | 23.89° C | 39% | 991.1 hPa | 0 mm | - | - | - |
| 1778063941 | 23.33° C | 43% | 990.9 hPa | 0 mm | - | - | - |
| 1778063039 | 23.33° C | 43% | 990.9 hPa | 0 mm | - | - | - |
| 1778062438 | 22.22° C | 46% | 990.9 hPa | 0 mm | - | - | - |
| 1778061837 | 22.22° C | 48% | 991.3 hPa | 0 mm | - | - | - |
| 1778061236 | 21.67° C | 48% | 991.2 hPa | 0 mm | - | - | - |
| 1778060635 | 21.67° C | 50% | 991.2 hPa | 0 mm | - | - | - |
| 1778060034 | 20.56° C | 52% | 991.3 hPa | 0 mm | - | - | - |
| 1778059433 | 20.56° C | 52% | 991.3 hPa | 0 mm | - | - | - |
| 1778059132 | 20.56° C | 51% | 991.5 hPa | 0 mm | - | - | - |
| 1778058831 | 20.56° C | 51% | 991.6 hPa | 0 mm | - | - | - |
| 1778058531 | 20° C | 52% | 991.5 hPa | 0 mm | - | - | - |
| 1778058230 | 20° C | 52% | 991.4 hPa | 0 mm | - | - | - |
| 1778057329 | 20.56° C | 51% | 991.3 hPa | 0 mm | - | - | - |
| 1778057028 | 20° C | 51% | 991.1 hPa | 0 mm | - | - | - |
| 1778056427 | 20° C | 50% | 990.9 hPa | 0 mm | - | - | - |
| 1778056126 | 20° C | 50% | 990.9 hPa | 0 mm | - | - | - |
| 1778055826 | 18.89° C | 52% | 990.9 hPa | 0 mm | - | - | - |
| 1778055525 | 20° C | 49% | 990.8 hPa | 0 mm | - | - | - |
| 1778054924 | 20° C | 49% | 991.1 hPa | 0 mm | - | - | - |
| 1778054623 | 20.56° C | 48% | 990.9 hPa | 0 mm | - | - | - |
* Rain latest hour (hover to see other rain measurements)
** Current wind speed in m/s (hover to see current wind gust speed)